10°C Temp
3°C Dewpoint
% Humidity
Temperature
13 KM/H
8 MPH
7 KTS
70°
East North
East

Wind Speed
Clear
Conditions
Pressure 1025.92 (hPa) - 30.3 (in)
Visibility 6.2 (mi) - 10.0 (km)

Current Conditions
EHBK
Location 6km (3.2mi)
Metar :EHBK 190455Z AUTO 07007KT 050V110 9999 NCD 10/03 Q1026 NOSIG
Fri 19th April 05:55 am

Airport
  Metar Aviation API Data Provided by https://www.checkwx.com/ PHP scripts by weather34.com ©2019